createdAt,value
2018-10-02T00:00:26.901Z,44.00
2018-10-02T00:01:26.923Z,40.00
2018-10-02T00:02:26.931Z,40.00
2018-10-02T00:03:26.949Z,40.00
2018-10-02T00:04:27.075Z,40.00
2018-10-02T00:05:26.980Z,44.00
2018-10-02T00:06:26.992Z,40.00
2018-10-02T00:07:27.023Z,44.00
2018-10-02T00:08:27.038Z,44.00
2018-10-02T00:09:27.304Z,44.00
2018-10-02T00:10:27.064Z,44.00
2018-10-02T00:11:27.067Z,44.00
2018-10-02T00:12:27.081Z,44.00
2018-10-02T00:13:27.107Z,40.00
2018-10-02T00:14:27.218Z,44.00
2018-10-02T00:15:27.142Z,44.00
2018-10-02T00:16:27.145Z,44.00
2018-10-02T00:17:27.172Z,44.00
2018-10-02T00:18:27.187Z,44.00
2018-10-02T00:19:27.305Z,44.00
2018-10-02T00:20:27.199Z,40.00
2018-10-02T00:21:27.229Z,44.00
2018-10-02T00:22:27.228Z,44.00
2018-10-02T00:23:27.252Z,40.00
2018-10-02T00:24:27.375Z,44.00
2018-10-02T00:25:27.290Z,40.00
2018-10-02T00:26:27.304Z,40.00
2018-10-02T00:27:27.321Z,40.00
2018-10-02T00:28:27.335Z,40.00
2018-10-02T00:29:27.441Z,40.00
2018-10-02T00:30:27.353Z,40.00
2018-10-02T00:31:27.390Z,40.00
2018-10-02T00:32:27.586Z,40.00
2018-10-02T00:33:27.405Z,40.00
2018-10-02T00:34:27.512Z,40.00
2018-10-02T00:35:27.436Z,40.00
2018-10-02T00:36:27.442Z,40.00
2018-10-02T00:37:27.457Z,40.00
2018-10-02T00:38:27.469Z,40.00
2018-10-02T00:39:27.754Z,40.00
2018-10-02T00:40:27.502Z,40.00
2018-10-02T00:41:27.532Z,40.00
2018-10-02T00:42:27.543Z,44.00
2018-10-02T00:43:27.549Z,44.00
2018-10-02T00:44:27.666Z,40.00
2018-10-02T00:45:27.585Z,40.00
2018-10-02T00:46:27.600Z,44.00
2018-10-02T00:47:27.621Z,44.00
2018-10-02T00:48:27.623Z,44.00
2018-10-02T00:49:27.745Z,40.00
2018-10-02T00:50:27.663Z,44.00
2018-10-02T00:51:27.670Z,40.00
2018-10-02T00:52:27.679Z,40.00
2018-10-02T00:53:27.697Z,36.00
2018-10-02T00:54:27.813Z,44.00
2018-10-02T00:55:27.741Z,44.00
2018-10-02T00:56:27.756Z,36.00
2018-10-02T00:57:27.777Z,40.00
2018-10-02T00:58:27.787Z,40.00
2018-10-02T00:59:27.805Z,40.00
2018-10-02T01:00:27.903Z,40.00
2018-10-02T01:01:27.832Z,40.00
2018-10-02T01:02:27.845Z,40.00
2018-10-02T01:03:27.849Z,40.00
2018-10-02T01:04:27.867Z,40.00
2018-10-02T01:05:27.978Z,40.00
2018-10-02T01:06:27.894Z,44.00
2018-10-02T01:07:27.913Z,40.00
2018-10-02T01:08:27.934Z,40.00
2018-10-02T01:09:27.948Z,40.00
2018-10-02T01:10:28.052Z,40.00
2018-10-02T01:11:27.980Z,40.00
2018-10-02T01:12:27.981Z,40.00
2018-10-02T01:13:28.004Z,40.00
2018-10-02T01:14:28.008Z,40.00
2018-10-02T01:15:28.135Z,40.00
2018-10-02T01:16:28.033Z,40.00
2018-10-02T01:17:28.057Z,40.00
2018-10-02T01:18:28.133Z,40.00
2018-10-02T01:19:28.092Z,40.00
2018-10-02T01:20:28.247Z,40.00
2018-10-02T01:21:28.118Z,40.00
2018-10-02T01:22:28.130Z,40.00
2018-10-02T01:23:28.157Z,40.00
2018-10-02T01:24:28.157Z,40.00
2018-10-02T01:25:28.290Z,40.00
2018-10-02T01:26:28.188Z,40.00
2018-10-02T01:27:28.203Z,40.00
2018-10-02T01:28:28.215Z,40.00
2018-10-02T01:29:28.238Z,40.00
2018-10-02T01:30:28.491Z,36.00
2018-10-02T01:31:28.260Z,40.00
2018-10-02T01:32:28.267Z,40.00
2018-10-02T01:33:28.302Z,40.00
2018-10-02T01:34:28.316Z,44.00
2018-10-02T01:35:28.421Z,40.00
2018-10-02T01:36:28.335Z,40.00
2018-10-02T01:37:28.345Z,40.00
2018-10-02T01:38:28.356Z,40.00
2018-10-02T01:39:28.378Z,40.00
2018-10-02T01:40:28.500Z,40.00
2018-10-02T01:41:28.415Z,40.00
2018-10-02T01:42:28.428Z,40.00
2018-10-02T01:43:28.449Z,40.00
2018-10-02T01:44:28.462Z,40.00
2018-10-02T01:45:28.562Z,40.00
2018-10-02T01:46:28.482Z,40.00
2018-10-02T01:47:28.506Z,40.00
2018-10-02T01:48:28.510Z,40.00
2018-10-02T01:49:28.535Z,40.00
2018-10-02T01:50:28.645Z,44.00
2018-10-02T01:51:28.549Z,44.00
2018-10-02T01:52:28.567Z,36.00
2018-10-02T01:53:28.579Z,40.00
2018-10-02T01:54:28.607Z,40.00
2018-10-02T01:55:28.724Z,36.00
2018-10-02T01:56:28.633Z,40.00
2018-10-02T01:57:28.648Z,40.00
2018-10-02T01:58:28.665Z,40.00
2018-10-02T01:59:28.667Z,40.00
2018-10-02T02:00:28.780Z,40.00
2018-10-02T02:01:28.710Z,40.00
2018-10-02T02:02:28.720Z,40.00
2018-10-02T02:03:28.726Z,40.00
2018-10-02T02:04:28.746Z,40.00
2018-10-02T02:05:28.753Z,40.00
2018-10-02T02:06:28.932Z,40.00
2018-10-02T02:07:28.783Z,40.00
2018-10-02T02:08:28.800Z,40.00
2018-10-02T02:09:28.820Z,40.00
2018-10-02T02:10:28.827Z,40.00
2018-10-02T02:11:28.945Z,40.00
2018-10-02T02:12:28.862Z,40.00
2018-10-02T02:13:28.887Z,40.00
2018-10-02T02:14:28.888Z,44.00
2018-10-02T02:15:28.899Z,40.00
2018-10-02T02:16:29.027Z,40.00
2018-10-02T02:17:28.936Z,40.00
2018-10-02T02:18:28.942Z,40.00
2018-10-02T02:19:28.967Z,40.00
2018-10-02T02:20:28.973Z,40.00
2018-10-02T02:21:29.087Z,40.00
2018-10-02T02:22:29.006Z,36.00
2018-10-02T02:23:29.014Z,36.00
2018-10-02T02:24:29.039Z,44.00
2018-10-02T02:25:29.043Z,40.00
2018-10-02T02:26:29.159Z,40.00
2018-10-02T02:27:29.082Z,40.00
2018-10-02T02:28:29.092Z,40.00
2018-10-02T02:29:29.103Z,40.00
2018-10-02T02:30:29.113Z,40.00
2018-10-02T02:31:29.230Z,40.00
2018-10-02T02:32:29.153Z,40.00
2018-10-02T02:33:29.169Z,40.00
2018-10-02T02:34:29.184Z,40.00
2018-10-02T02:35:29.200Z,40.00
2018-10-02T02:36:29.310Z,40.00
2018-10-02T02:37:29.228Z,40.00
2018-10-02T02:38:29.230Z,40.00
2018-10-02T02:39:29.241Z,40.00
2018-10-02T02:40:29.257Z,40.00
2018-10-02T02:41:29.382Z,40.00
2018-10-02T02:42:29.304Z,40.00
2018-10-02T02:43:29.303Z,40.00
2018-10-02T02:44:29.328Z,40.00
2018-10-02T02:45:29.338Z,40.00
2018-10-02T02:46:29.507Z,40.00
2018-10-02T02:47:29.359Z,40.00
2018-10-02T02:48:29.371Z,44.00
2018-10-02T02:49:29.398Z,40.00
2018-10-02T02:50:29.407Z,40.00
2018-10-02T02:51:29.530Z,40.00
2018-10-02T02:52:29.479Z,40.00
2018-10-02T02:53:29.438Z,40.00
2018-10-02T02:54:29.473Z,40.00
2018-10-02T02:55:29.475Z,40.00
2018-10-02T02:56:29.599Z,40.00
2018-10-02T02:57:29.507Z,40.00
2018-10-02T02:58:29.531Z,40.00
2018-10-02T02:59:29.536Z,40.00
2018-10-02T03:00:29.550Z,36.00
2018-10-02T03:01:29.658Z,40.00
2018-10-02T03:02:29.591Z,40.00
2018-10-02T03:03:29.599Z,40.00
2018-10-02T03:04:29.610Z,44.00
2018-10-02T03:05:29.624Z,40.00
2018-10-02T03:06:29.788Z,40.00
2018-10-02T03:07:29.649Z,36.00
2018-10-02T03:08:29.659Z,40.00
2018-10-02T03:09:29.686Z,40.00
2018-10-02T03:10:29.686Z,40.00
2018-10-02T03:11:29.697Z,40.00
2018-10-02T03:12:29.829Z,40.00
2018-10-02T03:13:29.738Z,40.00
2018-10-02T03:14:29.753Z,40.00
2018-10-02T03:15:29.773Z,40.00
2018-10-02T03:16:29.771Z,40.00
2018-10-02T03:17:29.898Z,40.00
2018-10-02T03:18:29.799Z,40.00
2018-10-02T03:19:29.826Z,40.00
2018-10-02T03:20:29.837Z,40.00
2018-10-02T03:21:29.843Z,40.00
2018-10-02T03:22:30.099Z,40.00
2018-10-02T03:23:29.874Z,40.00
2018-10-02T03:24:29.891Z,40.00
2018-10-02T03:25:29.916Z,40.00
2018-10-02T03:26:29.909Z,40.00
2018-10-02T03:27:30.021Z,40.00
2018-10-02T03:28:29.934Z,40.00
2018-10-02T03:29:29.964Z,40.00
2018-10-02T03:30:29.980Z,40.00
2018-10-02T03:31:29.985Z,40.00
2018-10-02T03:32:30.111Z,40.00
2018-10-02T03:33:30.025Z,40.00
2018-10-02T03:34:30.057Z,40.00
2018-10-02T03:35:30.055Z,40.00
2018-10-02T03:36:30.065Z,40.00
2018-10-02T03:37:30.179Z,40.00
2018-10-02T03:38:30.094Z,40.00
2018-10-02T03:39:30.143Z,40.00
2018-10-02T03:40:30.139Z,40.00
2018-10-02T03:41:30.139Z,40.00
2018-10-02T03:42:30.252Z,40.00
2018-10-02T03:43:30.148Z,40.00
2018-10-02T03:44:30.160Z,40.00
2018-10-02T03:45:30.187Z,40.00
2018-10-02T03:46:30.191Z,40.00
2018-10-02T03:47:30.323Z,40.00
2018-10-02T03:48:30.232Z,40.00
2018-10-02T03:49:30.236Z,40.00
2018-10-02T03:50:30.247Z,40.00
2018-10-02T03:51:30.262Z,40.00
2018-10-02T03:52:30.383Z,40.00
2018-10-02T03:53:30.307Z,40.00
2018-10-02T03:54:30.308Z,40.00
2018-10-02T03:55:30.317Z,40.00
2018-10-02T03:56:30.345Z,40.00
2018-10-02T03:57:30.457Z,40.00
2018-10-02T03:58:30.364Z,40.00
2018-10-02T03:59:30.385Z,40.00
2018-10-02T04:00:30.385Z,40.00
2018-10-02T04:01:30.408Z,40.00
2018-10-02T04:02:30.526Z,40.00
2018-10-02T04:03:30.559Z,40.00
2018-10-02T04:04:30.442Z,40.00
2018-10-02T04:05:30.464Z,40.00
2018-10-02T04:06:30.473Z,44.00
2018-10-02T04:07:30.736Z,36.00
2018-10-02T04:08:30.502Z,44.00
2018-10-02T04:09:30.517Z,40.00
2018-10-02T04:10:30.547Z,40.00
2018-10-02T04:11:30.558Z,40.00
2018-10-02T04:12:30.654Z,40.00
2018-10-02T04:13:30.584Z,44.00
2018-10-02T04:14:30.594Z,40.00
2018-10-02T04:15:30.612Z,40.00
2018-10-02T04:16:30.628Z,40.00
2018-10-02T04:17:30.876Z,40.00
2018-10-02T04:18:30.655Z,44.00
2018-10-02T04:19:30.652Z,40.00
2018-10-02T04:20:30.701Z,40.00
2018-10-02T04:21:30.680Z,44.00
2018-10-02T04:22:30.708Z,40.00
2018-10-02T04:23:30.822Z,40.00
2018-10-02T04:24:30.719Z,44.00
2018-10-02T04:25:30.738Z,44.00
2018-10-02T04:26:30.762Z,40.00
2018-10-02T04:27:30.758Z,40.00
2018-10-02T04:28:30.990Z,40.00
2018-10-02T04:29:30.803Z,44.00
2018-10-02T04:30:30.822Z,36.00
2018-10-02T04:31:30.821Z,40.00
2018-10-02T04:32:30.834Z,40.00
2018-10-02T04:33:30.949Z,44.00
2018-10-02T04:34:30.862Z,40.00
2018-10-02T04:35:30.886Z,44.00
2018-10-02T04:36:30.883Z,40.00
2018-10-02T04:37:30.897Z,40.00
2018-10-02T04:38:31.013Z,40.00
2018-10-02T04:39:30.981Z,40.00
2018-10-02T04:40:30.937Z,40.00
2018-10-02T04:41:30.992Z,40.00
2018-10-02T04:42:30.974Z,40.00
2018-10-02T04:43:31.084Z,40.00
2018-10-02T04:44:30.999Z,40.00
2018-10-02T04:45:31.022Z,40.00
2018-10-02T04:46:31.024Z,40.00
2018-10-02T04:47:31.055Z,40.00
2018-10-02T04:48:31.158Z,40.00
2018-10-02T04:49:31.080Z,40.00
2018-10-02T04:50:31.093Z,40.00
2018-10-02T04:51:31.101Z,40.00
2018-10-02T04:52:31.119Z,40.00
2018-10-02T04:53:31.236Z,40.00
2018-10-02T04:54:31.136Z,40.00
2018-10-02T04:55:31.153Z,40.00
2018-10-02T04:56:31.165Z,40.00
2018-10-02T04:57:31.183Z,40.00
2018-10-02T04:58:31.298Z,40.00
2018-10-02T04:59:31.221Z,40.00
2018-10-02T05:00:31.221Z,40.00
2018-10-02T05:01:31.246Z,40.00
2018-10-02T05:02:31.254Z,40.00
2018-10-02T05:03:31.426Z,40.00
2018-10-02T05:04:31.291Z,40.00
2018-10-02T05:05:31.289Z,40.00
2018-10-02T05:06:31.349Z,40.00
2018-10-02T05:07:31.318Z,40.00
2018-10-02T05:08:31.620Z,40.00
2018-10-02T05:09:31.358Z,36.00
2018-10-02T05:10:31.374Z,36.00
2018-10-02T05:11:31.376Z,36.00
2018-10-02T05:12:31.398Z,36.00
2018-10-02T05:13:31.500Z,36.00
2018-10-02T05:14:31.430Z,36.00
2018-10-02T05:15:31.448Z,36.00
2018-10-02T05:16:31.457Z,36.00
2018-10-02T05:17:31.465Z,36.00
2018-10-02T05:18:31.584Z,36.00
2018-10-02T05:19:31.487Z,36.00
2018-10-02T05:20:31.565Z,36.00
2018-10-02T05:21:31.516Z,36.00
2018-10-02T05:22:31.530Z,36.00
2018-10-02T05:23:31.656Z,36.00
2018-10-02T05:24:31.567Z,36.00
2018-10-02T05:25:31.565Z,36.00
2018-10-02T05:26:31.584Z,36.00
2018-10-02T05:27:31.622Z,36.00
2018-10-02T05:28:31.726Z,36.00
2018-10-02T05:29:31.673Z,36.00
2018-10-02T05:30:31.639Z,36.00
2018-10-02T05:31:31.664Z,40.00
2018-10-02T05:32:31.664Z,36.00
2018-10-02T05:33:31.798Z,40.00
2018-10-02T05:34:31.703Z,40.00
2018-10-02T05:35:31.787Z,40.00
2018-10-02T05:36:31.731Z,36.00
2018-10-02T05:37:31.742Z,40.00
2018-10-02T05:38:31.844Z,40.00
2018-10-02T05:39:31.773Z,36.00
2018-10-02T05:40:31.776Z,40.00
2018-10-02T05:41:31.800Z,40.00
2018-10-02T05:42:31.846Z,36.00
2018-10-02T05:43:31.912Z,40.00
2018-10-02T05:44:31.834Z,40.00
2018-10-02T05:45:31.843Z,36.00
2018-10-02T05:46:31.876Z,40.00
2018-10-02T05:47:31.871Z,36.00
2018-10-02T05:48:32.000Z,40.00
2018-10-02T05:49:31.914Z,36.00
2018-10-02T05:50:31.969Z,40.00
2018-10-02T05:51:31.926Z,36.00
2018-10-02T05:52:31.946Z,40.00
2018-10-02T05:53:32.210Z,40.00
2018-10-02T05:54:31.966Z,36.00
2018-10-02T05:55:31.979Z,40.00
2018-10-02T05:56:32.008Z,40.00
2018-10-02T05:57:32.025Z,40.00
2018-10-02T05:58:32.205Z,40.00
2018-10-02T05:59:32.050Z,40.00
2018-10-02T06:00:32.059Z,40.00
2018-10-02T06:01:32.061Z,40.00
2018-10-02T06:02:32.089Z,40.00
2018-10-02T06:03:32.200Z,40.00
2018-10-02T06:04:32.119Z,40.00
2018-10-02T06:05:32.119Z,40.00
2018-10-02T06:06:32.144Z,40.00
2018-10-02T06:07:32.153Z,40.00
2018-10-02T06:08:32.322Z,40.00
2018-10-02T06:09:32.187Z,36.00
2018-10-02T06:10:32.199Z,36.00
2018-10-02T06:11:32.201Z,40.00
2018-10-02T06:12:32.216Z,40.00
2018-10-02T06:13:32.339Z,36.00
2018-10-02T06:14:32.251Z,36.00
2018-10-02T06:15:32.261Z,36.00
2018-10-02T06:16:32.277Z,40.00
2018-10-02T06:17:32.293Z,36.00
2018-10-02T06:18:32.499Z,36.00
2018-10-02T06:19:32.309Z,36.00
2018-10-02T06:20:32.338Z,36.00
2018-10-02T06:21:32.337Z,36.00
2018-10-02T06:22:32.368Z,36.00
2018-10-02T06:23:32.632Z,40.00
2018-10-02T06:24:32.438Z,40.00
2018-10-02T06:25:32.385Z,40.00
2018-10-02T06:26:32.401Z,36.00
2018-10-02T06:27:32.431Z,40.00
2018-10-02T06:28:32.536Z,36.00
2018-10-02T06:29:32.451Z,36.00
2018-10-02T06:30:32.462Z,36.00
2018-10-02T06:31:32.473Z,36.00
2018-10-02T06:32:32.531Z,36.00
2018-10-02T06:33:32.594Z,40.00
2018-10-02T06:34:32.527Z,36.00
2018-10-02T06:35:32.542Z,36.00
2018-10-02T06:36:32.550Z,36.00
2018-10-02T06:37:32.550Z,40.00
2018-10-02T06:38:33.085Z,40.00
2018-10-02T06:39:32.599Z,36.00
2018-10-02T06:40:32.601Z,36.00
2018-10-02T06:41:32.605Z,36.00
2018-10-02T06:42:32.633Z,40.00
2018-10-02T06:43:32.694Z,36.00
2018-10-02T06:44:32.835Z,36.00
2018-10-02T06:45:32.674Z,36.00
2018-10-02T06:46:32.674Z,40.00
2018-10-02T06:47:32.690Z,36.00
2018-10-02T06:48:32.728Z,40.00
2018-10-02T06:49:32.732Z,40.00
2018-10-02T06:50:32.867Z,40.00
2018-10-02T06:51:32.920Z,40.00
2018-10-02T06:52:33.025Z,36.00
2018-10-02T06:53:32.769Z,36.00
2018-10-02T06:54:32.784Z,40.00
2018-10-02T06:55:32.901Z,40.00
2018-10-02T06:56:32.833Z,36.00
2018-10-02T06:57:32.825Z,36.00
2018-10-02T06:58:32.839Z,36.00
2018-10-02T06:59:32.864Z,40.00
2018-10-02T07:00:32.987Z,40.00
2018-10-02T07:01:32.889Z,40.00
2018-10-02T07:02:32.994Z,36.00
2018-10-02T07:03:32.906Z,36.00
2018-10-02T07:04:32.918Z,36.00
2018-10-02T07:05:33.038Z,36.00
2018-10-02T07:06:32.997Z,36.00
2018-10-02T07:07:32.968Z,40.00
2018-10-02T07:08:33.021Z,40.00
2018-10-02T07:09:32.985Z,36.00
2018-10-02T07:10:33.156Z,40.00
2018-10-02T07:11:33.010Z,40.00
2018-10-02T07:12:33.059Z,36.00
2018-10-02T07:13:33.034Z,40.00
2018-10-02T07:14:33.077Z,36.00
2018-10-02T07:15:33.176Z,40.00
2018-10-02T07:16:33.088Z,40.00
2018-10-02T07:17:33.187Z,36.00
2018-10-02T07:18:33.101Z,36.00
2018-10-02T07:19:33.117Z,36.00
2018-10-02T07:20:33.279Z,36.00
2018-10-02T07:21:33.158Z,36.00
2018-10-02T07:22:33.172Z,40.00
2018-10-02T07:23:33.180Z,40.00
2018-10-02T07:24:33.194Z,36.00
2018-10-02T07:25:33.388Z,36.00
2018-10-02T07:26:33.281Z,36.00
2018-10-02T07:27:33.344Z,40.00
2018-10-02T07:28:33.252Z,40.00
2018-10-02T07:29:33.261Z,40.00
2018-10-02T07:30:33.429Z,36.00
2018-10-02T07:31:33.281Z,40.00
2018-10-02T07:32:33.317Z,40.00
2018-10-02T07:33:33.304Z,36.00
2018-10-02T07:34:33.325Z,36.00
2018-10-02T07:35:33.435Z,36.00
2018-10-02T07:36:33.418Z,36.00
2018-10-02T07:37:33.369Z,40.00
2018-10-02T07:38:33.413Z,36.00
2018-10-02T07:39:33.384Z,40.00
2018-10-02T07:40:33.512Z,36.00
2018-10-02T07:41:33.452Z,40.00
2018-10-02T07:42:33.442Z,36.00
2018-10-02T07:43:33.458Z,36.00
2018-10-02T07:44:33.581Z,36.00
2018-10-02T07:45:33.567Z,40.00
2018-10-02T07:46:33.491Z,40.00
2018-10-02T07:47:33.526Z,36.00
2018-10-02T07:48:33.580Z,40.00
2018-10-02T07:49:33.519Z,36.00
2018-10-02T07:50:33.789Z,40.00
2018-10-02T07:51:33.548Z,40.00
2018-10-02T07:52:33.566Z,36.00
2018-10-02T07:53:33.609Z,40.00
2018-10-02T07:54:33.598Z,36.00
2018-10-02T07:55:33.667Z,36.00
2018-10-02T07:56:33.829Z,40.00
2018-10-02T07:57:33.631Z,36.00
2018-10-02T07:58:33.641Z,36.00
2018-10-02T07:59:33.679Z,36.00
2018-10-02T08:00:33.671Z,36.00
2018-10-02T08:01:33.696Z,36.00
2018-10-02T08:02:33.897Z,36.00
2018-10-02T08:03:33.709Z,40.00
2018-10-02T08:04:33.728Z,36.00
2018-10-02T08:05:33.770Z,40.00
2018-10-02T08:06:33.749Z,40.00
2018-10-02T08:07:33.913Z,40.00
2018-10-02T08:08:33.821Z,40.00
2018-10-02T08:09:33.791Z,40.00
2018-10-02T08:10:33.804Z,40.00
2018-10-02T08:11:33.876Z,40.00
2018-10-02T08:12:33.943Z,40.00
2018-10-02T08:13:33.938Z,40.00
2018-10-02T08:14:33.916Z,40.00
2018-10-02T08:15:33.881Z,40.00
2018-10-02T08:16:33.898Z,40.00
2018-10-02T08:17:34.088Z,40.00
2018-10-02T08:18:33.914Z,40.00
2018-10-02T08:19:33.940Z,40.00
2018-10-02T08:20:34.010Z,40.00
2018-10-02T08:21:33.956Z,36.00
2018-10-02T08:22:34.063Z,36.00
2018-10-02T08:23:34.039Z,40.00
2018-10-02T08:24:33.992Z,40.00
2018-10-02T08:25:34.007Z,40.00
2018-10-02T08:26:34.046Z,44.00
2018-10-02T08:27:34.142Z,40.00
2018-10-02T08:28:34.062Z,40.00
2018-10-02T08:29:34.178Z,48.00
2018-10-02T08:30:34.086Z,44.00
2018-10-02T08:31:34.104Z,48.00
2018-10-02T08:32:34.282Z,52.00
2018-10-02T08:33:34.126Z,60.00
2018-10-02T08:34:34.140Z,64.00
2018-10-02T08:35:34.226Z,72.00
2018-10-02T08:36:34.280Z,80.00
2018-10-02T08:37:34.432Z,92.00
2018-10-02T08:38:34.254Z,104.00
2018-10-02T08:39:34.197Z,120.00
2018-10-02T08:40:34.210Z,140.00
2018-10-02T08:41:34.224Z,172.00
2018-10-02T08:42:34.347Z,204.00
2018-10-02T08:43:34.361Z,236.00
2018-10-02T08:44:34.281Z,272.00
2018-10-02T08:45:34.275Z,304.00
2018-10-02T08:46:34.295Z,328.00
2018-10-02T08:47:34.478Z,348.00
2018-10-02T08:48:34.359Z,368.00
2018-10-02T08:49:34.332Z,388.00
2018-10-02T08:50:34.423Z,424.00
2018-10-02T08:51:34.357Z,472.00
2018-10-02T08:52:34.480Z,520.00
2018-10-02T08:53:34.398Z,552.00
2018-10-02T08:54:34.402Z,596.00
2018-10-02T08:55:34.415Z,648.00
2018-10-02T08:56:34.424Z,704.00
2018-10-02T08:57:34.552Z,756.00
2018-10-02T08:58:34.466Z,796.00
2018-10-02T08:59:34.477Z,832.00
2018-10-02T09:00:34.584Z,916.00
2018-10-02T09:01:34.521Z,1000.00
2018-10-02T09:02:34.607Z,1048.00
2018-10-02T09:03:34.525Z,1084.00
2018-10-02T09:04:34.544Z,1120.00
2018-10-02T09:05:34.561Z,1140.00
2018-10-02T09:06:34.598Z,1132.00
2018-10-02T09:07:34.821Z,1112.00
2018-10-02T09:08:34.600Z,1144.00
2018-10-02T09:09:34.608Z,1196.00
2018-10-02T09:10:34.617Z,1216.00
2018-10-02T09:11:34.633Z,1284.00
2018-10-02T09:12:34.701Z,1356.00
2018-10-02T09:13:34.770Z,1436.00
2018-10-02T09:14:34.683Z,1516.00
2018-10-02T09:15:34.715Z,1592.00
2018-10-02T09:16:34.813Z,1672.00
2018-10-02T09:17:34.712Z,1776.00
2018-10-02T09:18:34.910Z,1924.00
2018-10-02T09:19:34.741Z,2220.00
2018-10-02T09:20:34.797Z,2380.00
2018-10-02T09:21:34.817Z,2440.00
2018-10-02T09:22:34.787Z,2528.00
2018-10-02T09:23:34.949Z,2364.00
2018-10-02T09:24:34.881Z,2368.00
2018-10-02T09:25:34.834Z,2472.00
2018-10-02T09:26:34.834Z,2564.00
2018-10-02T09:27:34.972Z,2664.00
2018-10-02T09:28:35.072Z,2768.00
2018-10-02T09:29:34.879Z,2860.00
2018-10-02T09:30:34.908Z,2960.00
2018-10-02T09:31:34.918Z,3028.00
2018-10-02T09:32:34.918Z,3156.00
2018-10-02T09:33:35.055Z,3412.00
2018-10-02T09:34:34.949Z,3728.00
2018-10-02T09:35:34.966Z,3832.00
2018-10-02T09:36:35.030Z,3472.00
2018-10-02T09:37:35.003Z,3336.00
2018-10-02T09:38:35.111Z,3420.00
2018-10-02T09:39:35.041Z,3512.00
2018-10-02T09:40:35.045Z,3580.00
2018-10-02T09:41:35.048Z,3632.00
2018-10-02T09:42:35.165Z,3664.00
2018-10-02T09:43:35.273Z,3684.00
2018-10-02T09:44:35.087Z,3680.00
2018-10-02T09:45:35.111Z,3680.00
2018-10-02T09:46:35.117Z,3664.00
2018-10-02T09:47:35.139Z,3664.00
2018-10-02T09:48:35.298Z,3680.00
2018-10-02T09:49:35.172Z,3696.00
2018-10-02T09:50:35.206Z,3688.00
2018-10-02T09:51:35.200Z,3700.00
2018-10-02T09:52:35.203Z,3740.00
2018-10-02T09:53:35.491Z,3828.00
2018-10-02T09:54:35.299Z,4040.00
2018-10-02T09:55:35.260Z,4256.00
2018-10-02T09:56:35.313Z,4580.00
2018-10-02T09:57:35.279Z,4936.00
2018-10-02T09:58:35.408Z,5472.00
2018-10-02T09:59:35.319Z,5900.00
2018-10-02T10:00:35.353Z,6276.00
2018-10-02T10:01:35.333Z,6556.00
2018-10-02T10:02:35.376Z,6640.00
2018-10-02T10:03:35.473Z,6612.00
2018-10-02T10:04:35.391Z,6868.00
2018-10-02T10:05:35.401Z,6596.00
2018-10-02T10:06:35.408Z,6924.00
2018-10-02T10:07:35.435Z,6936.00
2018-10-02T10:08:35.548Z,8008.00
2018-10-02T10:09:35.468Z,8840.00
2018-10-02T10:10:35.522Z,8860.00
2018-10-02T10:11:35.496Z,9092.00
2018-10-02T10:12:35.500Z,9000.00
2018-10-02T10:13:35.618Z,8908.00
2018-10-02T10:14:35.542Z,8796.00
2018-10-02T10:15:35.553Z,7972.00
2018-10-02T10:16:35.602Z,7104.00
2018-10-02T10:17:35.579Z,7144.00
2018-10-02T10:18:35.697Z,7156.00
2018-10-02T10:19:35.621Z,6944.00
2018-10-02T10:20:35.635Z,6968.00
2018-10-02T10:21:35.655Z,6932.00
2018-10-02T10:22:35.662Z,6784.00
2018-10-02T10:23:35.672Z,6736.00
2018-10-02T10:24:35.797Z,6744.00
2018-10-02T10:25:35.700Z,6860.00
2018-10-02T10:26:35.755Z,7012.00
2018-10-02T10:27:35.748Z,7224.00
2018-10-02T10:28:35.814Z,7416.00
2018-10-02T10:29:35.928Z,7584.00
2018-10-02T10:30:35.786Z,7792.00
2018-10-02T10:31:35.803Z,7936.00
2018-10-02T10:32:35.821Z,8060.00
2018-10-02T10:33:35.867Z,8180.00
2018-10-02T10:34:36.136Z,8280.00
2018-10-02T10:35:35.877Z,8372.00
2018-10-02T10:36:35.891Z,8428.00
2018-10-02T10:37:35.913Z,8500.00
2018-10-02T10:38:35.929Z,8644.00
2018-10-02T10:39:36.039Z,8864.00
2018-10-02T10:40:35.965Z,9108.00
2018-10-02T10:41:35.979Z,9256.00
2018-10-02T10:42:35.978Z,9288.00
2018-10-02T10:43:35.992Z,9312.00
2018-10-02T10:44:36.115Z,9488.00
2018-10-02T10:45:36.036Z,9864.00
2018-10-02T10:46:36.089Z,10372.00
2018-10-02T10:47:36.107Z,10928.00
2018-10-02T10:48:36.091Z,11424.00
2018-10-02T10:49:36.256Z,11708.00
2018-10-02T10:50:36.119Z,11736.00
2018-10-02T10:51:36.129Z,11660.00
2018-10-02T10:52:36.220Z,11640.00
2018-10-02T10:53:36.160Z,11784.00
2018-10-02T10:54:36.280Z,12016.00
2018-10-02T10:55:36.197Z,12196.00
2018-10-02T10:56:36.340Z,12520.00
2018-10-02T10:57:36.231Z,12968.00
2018-10-02T10:58:36.340Z,13460.00
2018-10-02T10:59:36.368Z,14060.00
2018-10-02T11:00:36.297Z,14208.00
2018-10-02T11:01:36.311Z,14216.00
2018-10-02T11:02:36.331Z,14292.00
2018-10-02T11:03:36.332Z,14320.00
2018-10-02T11:04:36.708Z,14288.00
2018-10-02T11:05:36.378Z,14436.00
2018-10-02T11:06:36.387Z,14752.00
2018-10-02T11:07:36.414Z,14980.00
2018-10-02T11:08:36.423Z,15048.00
2018-10-02T11:09:36.513Z,14928.00
2018-10-02T11:10:36.558Z,15032.00
2018-10-02T11:11:36.484Z,15384.00
2018-10-02T11:12:36.503Z,15392.00
2018-10-02T11:13:36.534Z,14604.00
2018-10-02T11:14:36.543Z,13904.00
2018-10-02T11:15:36.647Z,13336.00
2018-10-02T11:16:36.580Z,13120.00
2018-10-02T11:17:36.586Z,13624.00
2018-10-02T11:18:36.610Z,13784.00
2018-10-02T11:19:36.680Z,13872.00
2018-10-02T11:20:36.740Z,12912.00
2018-10-02T11:21:36.668Z,12620.00
2018-10-02T11:22:36.691Z,11160.00
2018-10-02T11:23:36.706Z,12172.00
2018-10-02T11:24:36.723Z,14200.00
2018-10-02T11:25:36.879Z,17536.00
2018-10-02T11:26:36.766Z,15516.00
2018-10-02T11:27:36.768Z,17760.00
2018-10-02T11:28:36.783Z,17568.00
2018-10-02T11:29:36.859Z,18560.00
2018-10-02T11:30:36.964Z,18240.00
2018-10-02T11:31:36.896Z,18496.00
2018-10-02T11:32:36.869Z,17888.00
2018-10-02T11:33:36.877Z,17632.00
2018-10-02T11:34:36.894Z,17280.00
2018-10-02T11:35:37.081Z,17120.00
2018-10-02T11:36:36.939Z,17280.00
2018-10-02T11:37:36.970Z,17184.00
2018-10-02T11:38:36.981Z,16616.00
2018-10-02T11:39:36.998Z,16696.00
2018-10-02T11:40:37.107Z,16736.00
2018-10-02T11:41:37.033Z,16764.00
2018-10-02T11:42:37.057Z,16644.00
2018-10-02T11:43:37.147Z,16644.00
2018-10-02T11:44:37.131Z,16548.00
2018-10-02T11:45:37.208Z,16448.00
2018-10-02T11:46:37.133Z,16372.00
2018-10-02T11:47:37.154Z,16320.00
2018-10-02T11:48:37.173Z,16256.00
2018-10-02T11:49:37.228Z,16372.00
2018-10-02T11:50:37.305Z,16296.00
2018-10-02T11:51:37.224Z,16276.00
2018-10-02T11:52:37.253Z,16520.00
2018-10-02T11:53:37.265Z,16544.00
2018-10-02T11:54:37.285Z,16492.00
2018-10-02T11:55:37.469Z,16452.00
2018-10-02T11:56:37.332Z,16388.00
2018-10-02T11:57:37.377Z,16372.00
2018-10-02T11:58:37.371Z,16380.00
2018-10-02T11:59:37.385Z,16416.00
2018-10-02T12:00:37.593Z,16432.00
2018-10-02T12:01:37.420Z,16540.00
2018-10-02T12:02:37.463Z,16484.00
2018-10-02T12:03:37.479Z,16556.00
2018-10-02T12:04:37.494Z,16568.00
2018-10-02T12:05:37.600Z,16592.00
2018-10-02T12:06:37.561Z,16596.00
2018-10-02T12:07:37.552Z,16696.00
2018-10-02T12:08:37.577Z,16780.00
2018-10-02T12:09:37.596Z,16908.00
2018-10-02T12:10:37.703Z,16988.00
2018-10-02T12:11:37.710Z,16908.00
2018-10-02T12:12:37.645Z,16972.00
2018-10-02T12:13:37.868Z,17132.00
2018-10-02T12:14:37.738Z,17136.00
2018-10-02T12:15:37.806Z,17092.00
2018-10-02T12:16:37.734Z,17108.00
2018-10-02T12:17:37.755Z,17108.00
2018-10-02T12:18:37.766Z,17196.00
2018-10-02T12:19:37.869Z,17200.00
2018-10-02T12:20:37.962Z,17196.00
2018-10-02T12:21:37.819Z,17504.00
2018-10-02T12:22:37.862Z,17568.00
2018-10-02T12:23:37.933Z,17504.00
2018-10-02T12:24:37.881Z,17536.00
2018-10-02T12:25:38.010Z,17264.00
2018-10-02T12:26:37.932Z,17504.00
2018-10-02T12:27:37.957Z,17984.00
2018-10-02T12:28:37.973Z,18144.00
2018-10-02T12:29:37.986Z,18272.00
2018-10-02T12:30:38.118Z,18144.00
2018-10-02T12:31:38.021Z,18144.00
2018-10-02T12:32:38.058Z,18272.00
2018-10-02T12:33:38.062Z,18336.00
2018-10-02T12:34:38.083Z,18304.00